DLH788 EDDF-OIIE
Flight info
| Callsign | DLH788 |
|---|---|
| Flight time | N/A |
| Altitude | 31000 |
| Route | CINDY8S/18 CINDY Z74 HAREM DCT ASLEP DCT TAKUT L603 BESNI/N0490F330 L605 MIQ DCT ALUTU DCT BIBAG L605 ESEGA DCT SASAL/N0486F350 DCT INVED DCT ARTAT UP975 ERGUN UL124 KONUK/N0497F370 UL124 BONAM L319 OTENA L124 ZAJ R661 MIVAK |
| Aircraft | B742/H-SDFHIRWXY/L |
Departure
| Time | 2026-05-05 16:40 |
|---|---|
| Airport | Frankfurt Main Airport (EDDF) |
Arrival
| Time | N/A |
|---|---|
| Airport | Imam Khomeini International Airport (OIIE) |
| Time | Latitude | Longitude | Altitude | Speed | Heading |
|---|---|---|---|---|---|
| 2026-05-05 16:00 | 50.04701 | 8.57080 | 374 ft | 0 kts | 115° |
| 2026-05-05 16:20 | 50.04701 | 8.57079 | 374 ft | 0 kts | 115° |
| 2026-05-05 16:27 | 50.04705 | 8.57065 | 374 ft | 2 kts | 115° |
| 2026-05-05 16:27 | 50.04711 | 8.57043 | 374 ft | 2 kts | 115° |
| 2026-05-05 16:27 | 50.04718 | 8.57022 | 374 ft | 2 kts | 122° |
| 2026-05-05 16:27 | 50.04729 | 8.57007 | 374 ft | 2 kts | 156° |
| 2026-05-05 16:28 | 50.04744 | 8.57001 | 374 ft | 2 kts | 184° |
| 2026-05-05 16:28 | 50.04755 | 8.57005 | 374 ft | 0 kts | 204° |
| 2026-05-05 16:28 | 50.04744 | 8.56999 | 374 ft | 4 kts | 200° |
| 2026-05-05 16:28 | 50.04699 | 8.56968 | 374 ft | 7 kts | 204° |
| 2026-05-05 16:29 | 50.04650 | 8.56933 | 374 ft | 7 kts | 205° |
| 2026-05-05 16:29 | 50.04602 | 8.56899 | 374 ft | 6 kts | 205° |
| 2026-05-05 16:29 | 50.04580 | 8.56884 | 374 ft | 1 kts | 205° |
| 2026-05-05 16:29 | 50.04579 | 8.56883 | 374 ft | 0 kts | 205° |
| 2026-05-05 16:33 | 50.04559 | 8.56869 | 374 ft | 8 kts | 202° |
| 2026-05-05 16:33 | 50.04470 | 8.56841 | 374 ft | 14 kts | 210° |
| 2026-05-05 16:33 | 50.04424 | 8.56717 | 374 ft | 12 kts | 250° |
| 2026-05-05 16:34 | 50.04391 | 8.56578 | 374 ft | 15 kts | 250° |
| 2026-05-05 16:34 | 50.04346 | 8.56391 | 374 ft | 21 kts | 250° |
| 2026-05-05 16:34 | 50.04294 | 8.56175 | 374 ft | 20 kts | 250° |
| 2026-05-05 16:34 | 50.04245 | 8.55968 | 374 ft | 21 kts | 251° |
| 2026-05-05 16:35 | 50.04190 | 8.55734 | 374 ft | 25 kts | 250° |
| 2026-05-05 16:35 | 50.04128 | 8.55477 | 374 ft | 24 kts | 250° |
| 2026-05-05 16:35 | 50.04066 | 8.55215 | 374 ft | 27 kts | 250° |
| 2026-05-05 16:35 | 50.03996 | 8.54922 | 374 ft | 29 kts | 250° |
| 2026-05-05 16:36 | 50.03929 | 8.54638 | 374 ft | 26 kts | 249° |
| 2026-05-05 16:36 | 50.03860 | 8.54383 | 374 ft | 24 kts | 238° |
| 2026-05-05 16:36 | 50.03792 | 8.54178 | 374 ft | 17 kts | 250° |
| 2026-05-05 16:36 | 50.03742 | 8.53978 | 374 ft | 25 kts | 250° |
| 2026-05-05 16:37 | 50.03679 | 8.53714 | 374 ft | 25 kts | 250° |
| 2026-05-05 16:37 | 50.03617 | 8.53471 | 374 ft | 23 kts | 250° |
| 2026-05-05 16:37 | 50.03565 | 8.53246 | 374 ft | 21 kts | 250° |
| 2026-05-05 16:37 | 50.03516 | 8.53045 | 374 ft | 18 kts | 249° |
| 2026-05-05 16:38 | 50.03470 | 8.52866 | 373 ft | 16 kts | 247° |
| 2026-05-05 16:38 | 50.03430 | 8.52716 | 373 ft | 9 kts | 248° |
| 2026-05-05 16:38 | 50.03411 | 8.52645 | 373 ft | 5 kts | 245° |
| 2026-05-05 16:38 | 50.03379 | 8.52603 | 373 ft | 8 kts | 199° |
| 2026-05-05 16:39 | 50.03342 | 8.52590 | 373 ft | 0 kts | 180° |
| 2026-05-05 16:39 | 50.03293 | 8.52590 | 373 ft | 29 kts | 180° |
| 2026-05-05 16:39 | 50.02881 | 8.52593 | 373 ft | 88 kts | 180° |
| 2026-05-05 16:40 | 50.02082 | 8.52603 | 373 ft | 140 kts | 180° |
| 2026-05-05 16:40 | 50.00946 | 8.52620 | 405 ft | 181 kts | 181° |
| 2026-05-05 16:40 | 49.99677 | 8.52688 | 853 ft | 185 kts | 180° |
| 2026-05-05 16:40 | 49.98378 | 8.52794 | 1382 ft | 188 kts | 180° |
| 2026-05-05 16:41 | 49.97073 | 8.52928 | 1669 ft | 193 kts | 180° |
| 2026-05-05 16:41 | 49.95753 | 8.53382 | 1869 ft | 200 kts | 154° |
| 2026-05-05 16:41 | 49.94759 | 8.54923 | 2000 ft | 212 kts | 126° |
| 2026-05-05 16:41 | 49.93937 | 8.56914 | 2185 ft | 220 kts | 124° |
| 2026-05-05 16:42 | 49.93219 | 8.59056 | 2397 ft | 228 kts | 116° |
| 2026-05-05 16:42 | 49.92564 | 8.61327 | 2607 ft | 237 kts | 116° |
| 2026-05-05 16:42 | 49.91857 | 8.63703 | 2819 ft | 246 kts | 116° |
| 2026-05-05 16:42 | 49.91117 | 8.66132 | 3020 ft | 260 kts | 117° |